Sunday, May 24, 2015, 5:55 AM CDT
Back to Local

KHDC, Hammond, Hammond Municipal Airport

Location: Hammond, LA, United States Lat: 30.521
Local Time: 5:55 AM CDT (10:55 GMT) Lon: -90.418
Time Zone: US/Central Elev: 42 ft

Show me the last for .
Show Coded

Time T Td Feel RH Dir Speed Gust Alt SLP Vis Weather Sky Remarks
2015-05-24 05:35 73 70 77 88 110° 6 - 30.08 - 10 CLR None
2015-05-24 05:15 72 66 76 83 - Calm - 30.09 - 7 CLR None
2015-05-24 04:35 75 70 79 83 110° 3 - 30.09 - 10 SCT020 SCT029 None
2015-05-24 04:15 73 70 77 88 - Calm - 30.10 - 10 SCT021 SCT029 None
2015-05-24 03:55 73 70 77 88 - Calm - 30.10 - 10 SCT023 SCT034 None
2015-05-24 03:35 73 70 77 88 110° 3 - 30.10 - 10 CLR None
2015-05-24 03:15 75 70 79 83 - Calm - 30.11 - 10 CLR None
2015-05-24 02:55 75 68 79 78 - Calm - 30.10 - 10 CLR None
2015-05-24 02:35 75 68 79 78 100° 5 - 30.10 - 10 CLR None
2015-05-24 02:15 73 68 77 83 110° 5 - 30.10 - 10 CLR None
2015-05-24 01:55 75 68 79 78 100° 3 - 30.11 - 10 CLR None
2015-05-24 01:35 73 68 77 83 90° 5 - 30.11 - 10 CLR None
2015-05-24 01:15 75 68 79 78 - Calm - 30.12 - 10 CLR None
2015-05-24 00:55 75 68 79 78 - Calm - 30.13 - 10 CLR None
2015-05-24 00:35 75 68 79 78 90° 5 - 30.13 - 10 CLR None
2015-05-24 00:15 75 68 79 78 100° 3 - 30.13 - 10 CLR None
2015-05-23 23:55 75 68 79 78 110° 5 - 30.13 - 10 CLR None
2015-05-23 23:35 75 68 79 78 110° 5 - 30.13 - 10 CLR None
2015-05-23 23:15 75 68 79 78 100° 5 - 30.14 - 10 CLR None
2015-05-23 22:55 77 68 80 73 110° 5 - 30.13 - 10 CLR None
2015-05-23 22:35 77 68 80 73 100° 6 - 30.13 - 10 CLR None
2015-05-23 22:15 77 68 80 73 110° 6 - 30.13 - 10 CLR None
2015-05-23 21:55 77 68 80 73 110° 6 - 30.13 - 10 CLR None
2015-05-23 21:15 77 66 80 69 120° 6 - 30.12 - 10 SCT022 SCT027 None
2015-05-23 20:55 79 66 81 65 100° 7 - 30.12 - 10 CLR None
2015-05-23 20:35 79 66 81 65 100° 6 - 30.13 - 10 CLR None
2015-05-23 20:15 79 66 81 65 120° 7 - 30.13 - 10 CLR None
2015-05-23 19:55 79 66 81 65 120° 6 - 30.13 - 10 CLR None
2015-05-23 19:35 81 66 83 61 130° 9 - 30.13 - 10 CLR None
2015-05-23 19:15 81 66 83 61 130° 9 - 30.13 - 10 CLR None
2015-05-23 18:55 81 66 83 61 130° 12 - 30.13 - 10 CLR None
2015-05-23 18:35 81 66 83 61 140° 13 - 30.13 - 10 CLR None
2015-05-23 18:15 81 66 83 61 130° 9 17 30.14 - 10 CLR None
2015-05-23 17:55 82 66 85 58 140° 7 - 30.14 - 10 CLR None
2015-05-23 17:15 82 64 85 54 130° 14 21 30.15 - 10 CLR None
2015-05-23 16:55 84 63 86 48 150° 15 18 30.15 - 10 CLR None
2015-05-23 16:35 86 63 88 45 140° 17 21 30.15 - 10 CLR None
2015-05-23 16:15 88 63 90 43 150° 15 20 30.16 - 10 CLR None
2015-05-23 15:55 88 64 90 45 140° 14 20 30.16 - 10 CLR None
2015-05-23 15:35 88 66 91 48 140° 14 20 30.17 - 10 CLR None
2015-05-23 15:15 88 64 90 45 150° 12 - 30.18 - 10 CLR None
2015-05-23 14:55 88 64 90 45 150° 10 - 30.19 - 10 SCT041 None
2015-05-23 14:35 88 66 91 48 140° 10 - 30.19 - 10 VCTS CLR None
2015-05-23 14:15 88 66 91 48 150° 10 - 30.20 - 10 CLR None
2015-05-23 13:55 88 64 90 45 160° 9 - 30.20 - 10 CLR None
2015-05-23 13:15 86 66 89 51 140° 13 - 30.22 - 10 SCT036 SCT045 BKN055 None
2015-05-23 12:55 86 66 89 51 150° 8 - 30.22 - 10 SCT036 BKN043 BKN050 None
2015-05-23 12:35 86 66 89 51 100° 9 - 30.23 - 10 SCT035 SCT043 BKN050 None
2015-05-23 12:15 86 66 89 51 130° 10 - 30.23 - 10 SCT034 SCT044 SCT050 None
2015-05-23 11:55 86 66 89 51 120° 8 - 30.23 - 10 CLR None
2015-05-23 11:35 86 66 89 51 150° 9 - 30.24 - 10 CLR None
2015-05-23 11:15 84 66 87 54 130° 8 - 30.24 - 10 CLR None
2015-05-23 10:55 84 64 86 51 140° 6 9 30.24 - 10 CLR None
2015-05-23 10:35 84 64 86 51 110° 7 - 30.24 - 10 CLR None
2015-05-23 10:15 82 64 85 54 110° 7 - 30.24 - 10 CLR None
2015-05-23 09:55 81 64 83 57 90° 6 - 30.24 - 10 CLR None
2015-05-23 09:35 81 63 82 54 100° 5 - 30.24 - 10 CLR None
2015-05-23 09:15 79 63 81 57 100° 6 - 30.24 - 10 CLR None
2015-05-23 08:55 77 63 79 61 90° 3 - 30.24 - 10 CLR None
2015-05-23 08:35 75 61 78 60 110° 7 - 30.24 - 10 CLR None
2015-05-23 08:15 73 61 77 64 90° 5 - 30.24 - 10 CLR None
2015-05-23 07:55 72 61 76 68 70° 5 - 30.24 - 10 CLR None
2015-05-23 07:35 72 59 76 64 80° 7 - 30.23 - 10 CLR None
2015-05-23 07:15 70 61 - 73 80° 5 - 30.23 - 10 CLR None
2015-05-23 06:35 68 61 - 77 70° 5 - 30.22 - 10 CLR None
2015-05-23 06:15 68 61 - 77 70° 3 - 30.21 - 10 CLR None

Support USWX by starting your Amazon purchase here.